sensor_id;sensor_type;location;lat;lon;timestamp;pressure;altitude;pressure_sealevel;temperature;humidity
79678;BME280;69145;45.544;10.214;2023-05-07T00:01:49;100022.38;;;19.59;77.13
79678;BME280;69145;45.544;10.214;2023-05-07T00:04:15;100032.31;;;19.57;76.97
79678;BME280;69145;45.544;10.214;2023-05-07T00:06:43;100039.16;;;19.58;77.37
79678;BME280;69145;45.544;10.214;2023-05-07T00:09:08;100038.59;;;19.56;77.31
79678;BME280;69145;45.544;10.214;2023-05-07T00:11:34;100037.31;;;19.59;77.80
79678;BME280;69145;45.544;10.214;2023-05-07T00:14:00;100032.06;;;19.59;78.07
79678;BME280;69145;45.544;10.214;2023-05-07T00:16:25;100027.84;;;19.58;77.62
79678;BME280;69145;45.544;10.214;2023-05-07T00:18:52;100033.44;;;19.61;77.16
79678;BME280;69145;45.544;10.214;2023-05-07T00:21:18;100042.00;;;19.57;77.24
79678;BME280;69145;45.544;10.214;2023-05-07T00:23:43;100039.94;;;19.59;78.03
79678;BME280;69145;45.544;10.214;2023-05-07T00:26:09;100041.78;;;19.58;77.14
79678;BME280;69145;45.544;10.214;2023-05-07T00:28:38;100043.59;;;19.58;76.99
79678;BME280;69145;45.544;10.214;2023-05-07T00:31:03;100052.59;;;19.62;77.44
79678;BME280;69145;45.544;10.214;2023-05-07T00:33:29;100051.00;;;19.61;77.30
79678;BME280;69145;45.544;10.214;2023-05-07T00:35:54;100041.31;;;19.61;77.55
79678;BME280;69145;45.544;10.214;2023-05-07T00:38:20;100043.13;;;19.61;77.55
79678;BME280;69145;45.544;10.214;2023-05-07T00:40:45;100039.69;;;19.60;77.71
79678;BME280;69145;45.544;10.214;2023-05-07T00:43:11;100037.88;;;19.61;77.13
79678;BME280;69145;45.544;10.214;2023-05-07T00:45:37;100037.88;;;19.61;77.28
79678;BME280;69145;45.544;10.214;2023-05-07T00:48:03;100041.53;;;19.60;77.38
79678;BME280;69145;45.544;10.214;2023-05-07T00:50:29;100043.94;;;19.61;77.57
79678;BME280;69145;45.544;10.214;2023-05-07T00:52:55;100044.94;;;19.60;77.23
79678;BME280;69145;45.544;10.214;2023-05-07T00:55:22;100053.63;;;19.61;77.23
79678;BME280;69145;45.544;10.214;2023-05-07T00:57:49;100054.44;;;19.61;77.43
79678;BME280;69145;45.544;10.214;2023-05-07T01:00:14;100060.69;;;19.60;77.26
79678;BME280;69145;45.544;10.214;2023-05-07T01:02:40;100051.81;;;19.61;77.57
79678;BME280;69145;45.544;10.214;2023-05-07T01:05:08;100054.66;;;19.60;77.70
79678;BME280;69145;45.544;10.214;2023-05-07T01:07:35;100057.06;;;19.61;77.64
79678;BME280;69145;45.544;10.214;2023-05-07T01:10:03;100053.63;;;19.61;77.52
79678;BME280;69145;45.544;10.214;2023-05-07T01:12:30;100061.50;;;19.61;77.06
79678;BME280;69145;45.544;10.214;2023-05-07T01:14:56;100057.28;;;19.60;77.84
79678;BME280;69145;45.544;10.214;2023-05-07T01:17:22;100063.31;;;19.60;77.27
79678;BME280;69145;45.544;10.214;2023-05-07T01:19:48;100062.53;;;19.60;77.43
79678;BME280;69145;45.544;10.214;2023-05-07T01:22:16;100063.88;;;19.62;78.11
79678;BME280;69145;45.544;10.214;2023-05-07T01:24:45;100066.75;;;19.61;78.03
79678;BME280;69145;45.544;10.214;2023-05-07T01:27:11;100070.16;;;19.61;77.82
79678;BME280;69145;45.544;10.214;2023-05-07T01:29:36;100064.91;;;19.61;77.91
79678;BME280;69145;45.544;10.214;2023-05-07T01:32:02;100065.72;;;19.62;77.80
79678;BME280;69145;45.544;10.214;2023-05-07T01:34:31;100065.72;;;19.62;77.66
79678;BME280;69145;45.544;10.214;2023-05-07T01:36:59;100067.31;;;19.63;78.05
79678;BME280;69145;45.544;10.214;2023-05-07T01:39:25;100075.41;;;19.61;77.82
79678;BME280;69145;45.544;10.214;2023-05-07T01:41:53;100079.88;;;19.61;77.75
79678;BME280;69145;45.544;10.214;2023-05-07T01:44:19;100072.00;;;19.61;77.59
79678;BME280;69145;45.544;10.214;2023-05-07T01:46:46;100078.28;;;19.60;77.31
79678;BME280;69145;45.544;10.214;2023-05-07T01:49:12;100069.13;;;19.62;76.44
79678;BME280;69145;45.544;10.214;2023-05-07T01:51:38;100062.31;;;19.61;77.66
79678;BME280;69145;45.544;10.214;2023-05-07T01:54:05;100066.97;;;19.59;77.49
79678;BME280;69145;45.544;10.214;2023-05-07T01:56:31;100065.72;;;19.62;78.32
79678;BME280;69145;45.544;10.214;2023-05-07T01:58:56;100066.19;;;19.59;77.85
79678;BME280;69145;45.544;10.214;2023-05-07T02:01:21;100067.78;;;19.60;76.79
79678;BME280;69145;45.544;10.214;2023-05-07T02:03:47;100067.78;;;19.60;76.90
79678;BME280;69145;45.544;10.214;2023-05-07T02:06:12;100066.19;;;19.59;77.35
79678;BME280;69145;45.544;10.214;2023-05-07T02:08:38;100063.56;;;19.59;77.36
79678;BME280;69145;45.544;10.214;2023-05-07T02:11:03;100064.34;;;19.59;77.10
79678;BME280;69145;45.544;10.214;2023-05-07T02:13:30;100061.50;;;19.61;77.54
79678;BME280;69145;45.544;10.214;2023-05-07T02:15:55;100070.97;;;19.62;78.44
79678;BME280;69145;45.544;10.214;2023-05-07T02:18:21;100071.19;;;19.60;78.60
79678;BME280;69145;45.544;10.214;2023-05-07T02:20:46;100070.41;;;19.60;77.38
79678;BME280;69145;45.544;10.214;2023-05-07T02:23:12;100065.94;;;19.60;77.93
79678;BME280;69145;45.544;10.214;2023-05-07T02:25:38;100057.06;;;19.61;77.62
79678;BME280;69145;45.544;10.214;2023-05-07T02:28:03;100052.03;;;19.60;77.67
79678;BME280;69145;45.544;10.214;2023-05-07T02:30:28;100053.06;;;19.59;77.70
79678;BME280;69145;45.544;10.214;2023-05-07T02:32:54;100056.56;;;19.64;78.67
79678;BME280;69145;45.544;10.214;2023-05-07T02:35:19;100047.88;;;19.64;77.91
79678;BME280;69145;45.544;10.214;2023-05-07T02:37:44;100052.38;;;19.63;77.83
79678;BME280;69145;45.544;10.214;2023-05-07T02:40:10;100051.56;;;19.63;77.99
79678;BME280;69145;45.544;10.214;2023-05-07T02:42:36;100050.75;;;19.62;78.25
79678;BME280;69145;45.544;10.214;2023-05-07T02:45:01;100053.38;;;19.62;78.02
79678;BME280;69145;45.544;10.214;2023-05-07T02:47:27;100048.94;;;19.63;77.77
79678;BME280;69145;45.544;10.214;2023-05-07T02:49:54;100049.75;;;19.63;77.90
79678;BME280;69145;45.544;10.214;2023-05-07T02:52:19;100046.31;;;19.63;77.77
79678;BME280;69145;45.544;10.214;2023-05-07T02:54:44;100032.38;;;19.62;77.67
79678;BME280;69145;45.544;10.214;2023-05-07T02:57:10;100036.84;;;19.62;77.70
79678;BME280;69145;45.544;10.214;2023-05-07T02:59:35;100049.19;;;19.61;77.78
79678;BME280;69145;45.544;10.214;2023-05-07T03:02:01;100038.44;;;19.63;77.70
79678;BME280;69145;45.544;10.214;2023-05-07T03:04:26;100036.84;;;19.62;77.77
79678;BME280;69145;45.544;10.214;2023-05-07T03:06:51;100032.38;;;19.62;77.91
79678;BME280;69145;45.544;10.214;2023-05-07T03:09:16;100024.50;;;19.62;77.45
79678;BME280;69145;45.544;10.214;2023-05-07T03:11:42;100021.88;;;19.62;77.21
79678;BME280;69145;45.544;10.214;2023-05-07T03:14:07;100017.44;;;19.63;77.30
79678;BME280;69145;45.544;10.214;2023-05-07T03:16:33;100014.56;;;19.64;77.17
79678;BME280;69145;45.544;10.214;2023-05-07T03:18:58;100003.75;;;19.61;77.28
79678;BME280;69145;45.544;10.214;2023-05-07T03:21:23;100006.94;;;19.63;77.35
79678;BME280;69145;45.544;10.214;2023-05-07T03:23:49;100011.38;;;19.62;77.29
79678;BME280;69145;45.544;10.214;2023-05-07T03:26:14;100015.63;;;19.63;76.05
79678;BME280;69145;45.544;10.214;2023-05-07T03:28:40;100016.88;;;19.61;75.74
79678;BME280;69145;45.544;10.214;2023-05-07T03:31:05;100019.25;;;19.62;75.35
79678;BME280;69145;45.544;10.214;2023-05-07T03:33:33;100010.59;;;19.62;74.31
79678;BME280;69145;45.544;10.214;2023-05-07T03:35:58;100025.31;;;19.63;74.32
79678;BME280;69145;45.544;10.214;2023-05-07T03:38:23;100022.69;;;19.63;74.55
79678;BME280;69145;45.544;10.214;2023-05-07T03:40:49;100023.50;;;19.63;74.68
79678;BME280;69145;45.544;10.214;2023-05-07T03:43:14;100021.88;;;19.62;73.82
79678;BME280;69145;45.544;10.214;2023-05-07T03:45:40;100017.69;;;19.61;71.07
79678;BME280;69145;45.544;10.214;2023-05-07T03:48:05;100014.25;;;19.61;72.13
79678;BME280;69145;45.544;10.214;2023-05-07T03:50:30;100020.06;;;19.63;71.49
79678;BME280;69145;45.544;10.214;2023-05-07T03:52:56;100018.69;;;19.60;71.82
79678;BME280;69145;45.544;10.214;2023-05-07T03:55:21;100019.50;;;19.61;72.74
79678;BME280;69145;45.544;10.214;2023-05-07T03:57:47;100025.56;;;19.61;71.76
79678;BME280;69145;45.544;10.214;2023-05-07T04:00:12;100032.63;;;19.61;72.50
79678;BME280;69145;45.544;10.214;2023-05-07T04:02:38;100030.81;;;19.61;72.23
79678;BME280;69145;45.544;10.214;2023-05-07T04:05:03;100030.81;;;19.61;72.89
79678;BME280;69145;45.544;10.214;2023-05-07T04:07:30;100025.78;;;19.60;72.79
79678;BME280;69145;45.544;10.214;2023-05-07T04:09:55;100035.00;;;19.62;72.76
79678;BME280;69145;45.544;10.214;2023-05-07T04:12:20;100032.63;;;19.61;71.70
79678;BME280;69145;45.544;10.214;2023-05-07T04:14:46;100022.94;;;19.61;72.59
79678;BME280;69145;45.544;10.214;2023-05-07T04:17:11;100032.88;;;19.59;71.93
79678;BME280;69145;45.544;10.214;2023-05-07T04:19:36;100031.81;;;19.60;71.33
79678;BME280;69145;45.544;10.214;2023-05-07T04:22:02;100032.63;;;19.61;71.54
79678;BME280;69145;45.544;10.214;2023-05-07T04:24:27;100030.00;;;19.61;72.02
79678;BME280;69145;45.544;10.214;2023-05-07T04:26:52;100037.88;;;19.61;70.84
79678;BME280;69145;45.544;10.214;2023-05-07T04:29:18;100040.50;;;19.61;71.15
79678;BME280;69145;45.544;10.214;2023-05-07T04:31:44;100036.28;;;19.60;71.12
79678;BME280;69145;45.544;10.214;2023-05-07T04:34:10;100038.91;;;19.60;70.46
79678;BME280;69145;45.544;10.214;2023-05-07T04:36:37;100043.94;;;19.61;68.87
79678;BME280;69145;45.544;10.214;2023-05-07T04:39:03;100047.56;;;19.60;70.08
79678;BME280;69145;45.544;10.214;2023-05-07T04:41:29;100052.59;;;19.62;70.24
79678;BME280;69145;45.544;10.214;2023-05-07T04:43:54;100043.38;;;19.59;69.61
79678;BME280;69145;45.544;10.214;2023-05-07T04:46:20;100053.63;;;19.61;69.92
79678;BME280;69145;45.544;10.214;2023-05-07T04:48:45;100052.59;;;19.62;70.23
79678;BME280;69145;45.544;10.214;2023-05-07T04:51:11;100049.41;;;19.60;69.82
79678;BME280;69145;45.544;10.214;2023-05-07T04:53:37;100052.81;;;19.60;69.29
79678;BME280;69145;45.544;10.214;2023-05-07T04:56:02;100053.84;;;19.59;69.20
79678;BME280;69145;45.544;10.214;2023-05-07T04:58:28;100056.25;;;19.61;71.24
79678;BME280;69145;45.544;10.214;2023-05-07T05:00:57;100059.09;;;19.59;69.95
79678;BME280;69145;45.544;10.214;2023-05-07T05:03:23;100063.09;;;19.62;70.88
79678;BME280;69145;45.544;10.214;2023-05-07T05:05:52;100073.59;;;19.62;71.28
79678;BME280;69145;45.544;10.214;2023-05-07T05:08:27;100072.00;;;19.61;70.02
79678;BME280;69145;45.544;10.214;2023-05-07T05:10:52;100077.25;;;19.61;71.13
79678;BME280;69145;45.544;10.214;2023-05-07T05:13:18;100067.78;;;19.60;71.93
79678;BME280;69145;45.544;10.214;2023-05-07T05:15:43;100077.25;;;19.61;72.63
79678;BME280;69145;45.544;10.214;2023-05-07T05:18:08;100082.50;;;19.61;71.77
79678;BME280;69145;45.544;10.214;2023-05-07T05:20:34;100094.59;;;19.62;71.02
79678;BME280;69145;45.544;10.214;2023-05-07T05:22:59;100098.25;;;19.61;71.20
79678;BME280;69145;45.544;10.214;2023-05-07T05:25:24;100091.41;;;19.60;71.86
79678;BME280;69145;45.544;10.214;2023-05-07T05:27:50;100087.75;;;19.61;71.78
79678;BME280;69145;45.544;10.214;2023-05-07T05:30:15;100076.44;;;19.60;70.35
79678;BME280;69145;45.544;10.214;2023-05-07T05:32:40;100075.66;;;19.60;71.98
79678;BME280;69145;45.544;10.214;2023-05-07T05:35:06;100071.19;;;19.60;70.39
79678;BME280;69145;45.544;10.214;2023-05-07T05:37:32;100076.22;;;19.62;71.33
79678;BME280;69145;45.544;10.214;2023-05-07T05:39:57;100076.44;;;19.60;71.18
79678;BME280;69145;45.544;10.214;2023-05-07T05:42:23;100077.25;;;19.61;71.06
79678;BME280;69145;45.544;10.214;2023-05-07T05:44:48;100075.66;;;19.60;70.98
79678;BME280;69145;45.544;10.214;2023-05-07T05:47:14;100077.25;;;19.61;71.41
79678;BME280;69145;45.544;10.214;2023-05-07T05:49:39;100075.41;;;19.61;71.26
79678;BME280;69145;45.544;10.214;2023-05-07T05:52:05;100083.28;;;19.61;70.84
79678;BME280;69145;45.544;10.214;2023-05-07T05:54:30;100079.88;;;19.61;71.35
79678;BME280;69145;45.544;10.214;2023-05-07T05:56:56;100078.84;;;19.62;71.48
79678;BME280;69145;45.544;10.214;2023-05-07T05:59:22;100078.03;;;19.61;72.08
79678;BME280;69145;45.544;10.214;2023-05-07T06:01:47;100070.97;;;19.62;71.64
79678;BME280;69145;45.544;10.214;2023-05-07T06:04:12;100069.38;;;19.61;71.73
79678;BME280;69145;45.544;10.214;2023-05-07T06:06:45;100074.38;;;19.62;71.85
79678;BME280;69145;45.544;10.214;2023-05-07T06:09:10;100070.16;;;19.61;70.96
79678;BME280;69145;45.544;10.214;2023-05-07T06:11:36;100064.34;;;19.59;71.55
79678;BME280;69145;45.544;10.214;2023-05-07T06:14:04;100068.34;;;19.62;71.77
79678;BME280;69145;45.544;10.214;2023-05-07T06:16:30;100075.19;;;19.63;72.93
79678;BME280;69145;45.544;10.214;2023-05-07T06:18:55;100075.19;;;19.63;72.28
79678;BME280;69145;45.544;10.214;2023-05-07T06:21:23;100075.19;;;19.63;72.75
79678;BME280;69145;45.544;10.214;2023-05-07T06:23:48;100075.97;;;19.63;71.88
79678;BME280;69145;45.544;10.214;2023-05-07T06:26:14;100070.16;;;19.61;72.71
79678;BME280;69145;45.544;10.214;2023-05-07T06:28:39;100068.34;;;19.62;72.83
79678;BME280;69145;45.544;10.214;2023-05-07T06:31:15;100067.31;;;19.63;72.54
79678;BME280;69145;45.544;10.214;2023-05-07T06:33:41;100068.34;;;19.62;72.52
79678;BME280;69145;45.544;10.214;2023-05-07T06:36:07;100060.69;;;19.60;72.46
79678;BME280;69145;45.544;10.214;2023-05-07T06:38:33;100057.84;;;19.62;72.50
79678;BME280;69145;45.544;10.214;2023-05-07T06:41:00;100050.19;;;19.60;72.93
79678;BME280;69145;45.544;10.214;2023-05-07T06:43:26;100054.19;;;19.63;72.63
79678;BME280;69145;45.544;10.214;2023-05-07T06:45:51;100054.19;;;19.63;72.78
79678;BME280;69145;45.544;10.214;2023-05-07T06:48:16;100052.59;;;19.62;73.30
79678;BME280;69145;45.544;10.214;2023-05-07T06:50:42;100061.25;;;19.62;73.13
79678;BME280;69145;45.544;10.214;2023-05-07T06:53:07;100054.19;;;19.63;73.27
79678;BME280;69145;45.544;10.214;2023-05-07T06:55:33;100063.63;;;19.64;73.54
79678;BME280;69145;45.544;10.214;2023-05-07T06:57:58;100069.13;;;19.62;73.43
79678;BME280;69145;45.544;10.214;2023-05-07T07:00:29;100081.00;;;19.65;73.36
79678;BME280;69145;45.544;10.214;2023-05-07T07:02:54;100078.84;;;19.62;73.52
79678;BME280;69145;45.544;10.214;2023-05-07T07:05:20;100069.94;;;19.63;73.33
79678;BME280;69145;45.544;10.214;2023-05-07T07:07:45;100071.50;;;19.64;73.40
79678;BME280;69145;45.544;10.214;2023-05-07T07:10:20;100063.09;;;19.62;73.44
79678;BME280;69145;45.544;10.214;2023-05-07T07:12:45;100062.88;;;19.63;72.57
79678;BME280;69145;45.544;10.214;2023-05-07T07:15:11;100062.06;;;19.63;71.63
79678;BME280;69145;45.544;10.214;2023-05-07T07:17:36;100067.06;;;19.64;71.71
79678;BME280;69145;45.544;10.214;2023-05-07T07:20:02;100065.72;;;19.62;71.65
79678;BME280;69145;45.544;10.214;2023-05-07T07:22:28;100080.19;;;19.64;72.06
79678;BME280;69145;45.544;10.214;2023-05-07T07:24:54;100068.34;;;19.62;72.01
79678;BME280;69145;45.544;10.214;2023-05-07T07:27:19;100072.31;;;19.64;70.79
79678;BME280;69145;45.544;10.214;2023-05-07T07:29:45;100070.75;;;19.63;69.91
79678;BME280;69145;45.544;10.214;2023-05-07T07:32:11;100063.31;;;19.60;69.75
79678;BME280;69145;45.544;10.214;2023-05-07T07:34:36;100071.50;;;19.64;70.49
79678;BME280;69145;45.544;10.214;2023-05-07T07:37:02;100071.50;;;19.64;71.27
79678;BME280;69145;45.544;10.214;2023-05-07T07:39:31;100074.69;;;19.66;71.38
79678;BME280;69145;45.544;10.214;2023-05-07T07:59:26;100075.41;;;19.61;72.13
79678;BME280;69145;45.544;10.214;2023-05-07T08:07:00;100081.56;;;19.67;74.26
79678;BME280;69145;45.544;10.214;2023-05-07T08:09:25;100084.97;;;19.67;73.11
79678;BME280;69145;45.544;10.214;2023-05-07T08:11:50;100089.19;;;19.68;73.07
79678;BME280;69145;45.544;10.214;2023-05-07T08:14:16;100092.63;;;19.69;73.35
79678;BME280;69145;45.544;10.214;2023-05-07T08:16:41;100092.63;;;19.69;73.74
79678;BME280;69145;45.544;10.214;2023-05-07T08:19:07;100100.50;;;19.69;73.90
79678;BME280;69145;45.544;10.214;2023-05-07T08:21:32;100097.88;;;19.69;74.21
79678;BME280;69145;45.544;10.214;2023-05-07T08:23:57;100100.50;;;19.69;73.47
79678;BME280;69145;45.544;10.214;2023-05-07T08:26:23;100095.47;;;19.67;73.68
79678;BME280;69145;45.544;10.214;2023-05-07T08:28:48;100099.44;;;19.70;74.04
79678;BME280;69145;45.544;10.214;2023-05-07T08:31:13;100103.66;;;19.71;74.57
79678;BME280;69145;45.544;10.214;2023-05-07T08:33:39;100102.88;;;19.70;74.74
79678;BME280;69145;45.544;10.214;2023-05-07T08:41:20;100106.53;;;19.69;75.04
79678;BME280;69145;45.544;10.214;2023-05-07T08:43:50;100107.56;;;19.68;74.39
79678;BME280;69145;45.544;10.214;2023-05-07T08:46:21;100108.91;;;19.71;75.30
79678;BME280;69145;45.544;10.214;2023-05-07T08:49:10;100099.94;;;19.67;74.73
79678;BME280;69145;45.544;10.214;2023-05-07T08:51:35;100112.81;;;19.68;75.20
79678;BME280;69145;45.544;10.214;2023-05-07T08:54:03;100113.94;;;19.72;75.37
79678;BME280;69145;45.544;10.214;2023-05-07T08:56:30;100103.91;;;19.69;74.62
79678;BME280;69145;45.544;10.214;2023-05-07T08:58:55;100108.47;;;19.74;76.00
79678;BME280;69145;45.544;10.214;2023-05-07T09:01:24;100113.72;;;19.74;75.65
79678;BME280;69145;45.544;10.214;2023-05-07T09:03:50;100104.47;;;19.71;75.39
79678;BME280;69145;45.544;10.214;2023-05-07T09:06:16;100112.09;;;19.73;75.44
79678;BME280;69145;45.544;10.214;2023-05-07T09:08:51;100100.50;;;19.69;74.67
79678;BME280;69145;45.544;10.214;2023-05-07T09:11:48;100109.25;;;19.74;75.27
79678;BME280;69145;45.544;10.214;2023-05-07T09:14:12;100102.09;;;19.70;75.60
79678;BME280;69145;45.544;10.214;2023-05-07T09:16:38;100107.41;;;19.75;75.85
79678;BME280;69145;45.544;10.214;2023-05-07T09:19:06;100106.41;;;19.76;75.35
79678;BME280;69145;45.544;10.214;2023-05-07T09:21:39;100110.03;;;19.75;75.77
79678;BME280;69145;45.544;10.214;2023-05-07T09:24:05;100116.09;;;19.75;75.20
79678;BME280;69145;45.544;10.214;2023-05-07T09:26:30;100107.41;;;19.75;76.75
79678;BME280;69145;45.544;10.214;2023-05-07T09:28:58;100110.59;;;19.77;76.32
79678;BME280;69145;45.544;10.214;2023-05-07T09:31:23;100110.84;;;19.75;76.01
79678;BME280;69145;45.544;10.214;2023-05-07T09:33:50;100109.03;;;19.76;75.33
79678;BME280;69145;45.544;10.214;2023-05-07T09:36:18;100102.16;;;19.75;75.57
79678;BME280;69145;45.544;10.214;2023-05-07T09:38:43;100106.41;;;19.76;74.95
79678;BME280;69145;45.544;10.214;2023-05-07T09:41:11;100110.84;;;19.75;74.81
79678;BME280;69145;45.544;10.214;2023-05-07T09:43:43;100096.91;;;19.75;74.88
79678;BME280;69145;45.544;10.214;2023-05-07T09:46:13;100098.75;;;19.74;74.57
79678;BME280;69145;45.544;10.214;2023-05-07T09:48:41;100102.16;;;19.75;73.75
79678;BME280;69145;45.544;10.214;2023-05-07T09:51:15;100101.94;;;19.76;74.60
79678;BME280;69145;45.544;10.214;2023-05-07T09:53:41;100104.34;;;19.78;75.52
79678;BME280;69145;45.544;10.214;2023-05-07T09:56:08;100106.16;;;19.77;75.67
79678;BME280;69145;45.544;10.214;2023-05-07T09:58:36;100105.91;;;19.79;75.46
79678;BME280;69145;45.544;10.214;2023-05-07T10:01:03;100097.47;;;19.77;75.73
79678;BME280;69145;45.544;10.214;2023-05-07T10:03:30;100097.47;;;19.77;75.16
79678;BME280;69145;45.544;10.214;2023-05-07T10:05:58;100105.91;;;19.79;74.64
79678;BME280;69145;45.544;10.214;2023-05-07T10:08:24;100103.28;;;19.79;74.71
79678;BME280;69145;45.544;10.214;2023-05-07T10:10:50;100099.09;;;19.78;75.26
79678;BME280;69145;45.544;10.214;2023-05-07T10:13:17;100101.47;;;19.79;75.20
79678;BME280;69145;45.544;10.214;2023-05-07T10:15:42;100095.41;;;19.79;76.21
79678;BME280;69145;45.544;10.214;2023-05-07T10:18:08;100094.63;;;19.78;75.83
79678;BME280;69145;45.544;10.214;2023-05-07T10:20:34;100090.97;;;19.79;75.74
79678;BME280;69145;45.544;10.214;2023-05-07T10:23:03;100087.31;;;19.80;75.51
79678;BME280;69145;45.544;10.214;2023-05-07T10:25:30;100081.25;;;19.80;75.81
79678;BME280;69145;45.544;10.214;2023-05-07T10:28:05;100087.53;;;19.79;74.71
79678;BME280;69145;45.544;10.214;2023-05-07T10:33:22;100074.97;;;19.81;76.96
79678;BME280;69145;45.544;10.214;2023-05-07T10:35:49;100073.38;;;19.80;76.10
79678;BME280;69145;45.544;10.214;2023-05-07T10:38:15;100072.59;;;19.79;77.00
79678;BME280;69145;45.544;10.214;2023-05-07T10:40:44;100064.72;;;19.79;75.75
79678;BME280;69145;45.544;10.214;2023-05-07T10:43:09;100071.53;;;19.80;75.46
79678;BME280;69145;45.544;10.214;2023-05-07T10:45:35;100070.22;;;19.78;75.31
79678;BME280;69145;45.544;10.214;2023-05-07T10:50:38;100051.59;;;19.79;75.44
79678;BME280;69145;45.544;10.214;2023-05-07T10:58:44;100052.59;;;19.78;75.60
79678;BME280;69145;45.544;10.214;2023-05-07T11:01:09;100049.75;;;19.80;75.54
79678;BME280;69145;45.544;10.214;2023-05-07T11:04:18;100057.94;;;19.83;75.21
79678;BME280;69145;45.544;10.214;2023-05-07T11:15:01;100052.38;;;19.80;75.28
79678;BME280;69145;45.544;10.214;2023-05-07T11:17:27;100051.34;;;19.81;76.10
79678;BME280;69145;45.544;10.214;2023-05-07T11:19:57;100055.00;;;19.80;74.92
79678;BME280;69145;45.544;10.214;2023-05-07T11:25:00;100043.47;;;19.81;75.05
79678;BME280;69145;45.544;10.214;2023-05-07T11:27:26;100041.66;;;19.81;75.20
79678;BME280;69145;45.544;10.214;2023-05-07T11:29:52;100046.41;;;19.84;75.23
79678;BME280;69145;45.544;10.214;2023-05-07T11:32:28;100043.22;;;19.82;75.90
79678;BME280;69145;45.544;10.214;2023-05-07T11:34:55;100044.03;;;19.83;76.25
79678;BME280;69145;45.544;10.214;2023-05-07T11:37:22;100036.41;;;19.81;76.23
79678;BME280;69145;45.544;10.214;2023-05-07T11:39:48;100030.91;;;19.83;75.94
79678;BME280;69145;45.544;10.214;2023-05-07T11:44:56;100037.25;;;19.87;77.26
79678;BME280;69145;45.544;10.214;2023-05-07T11:47:22;100038.28;;;19.86;75.66
79678;BME280;69145;45.544;10.214;2023-05-07T11:49:52;100042.50;;;19.87;75.91
79678;BME280;69145;45.544;10.214;2023-05-07T11:52:20;100041.16;;;19.84;75.59
79678;BME280;69145;45.544;10.214;2023-05-07T11:54:53;100040.69;;;19.87;75.37
79678;BME280;69145;45.544;10.214;2023-05-07T11:57:19;100039.88;;;19.87;74.91
79678;BME280;69145;45.544;10.214;2023-05-07T11:59:45;100028.28;;;19.83;75.25
79678;BME280;69145;45.544;10.214;2023-05-07T12:02:15;100039.88;;;19.87;75.25
79678;BME280;69145;45.544;10.214;2023-05-07T12:04:41;100035.44;;;19.87;75.48
79678;BME280;69145;45.544;10.214;2023-05-07T12:07:15;100034.63;;;19.87;75.46
79678;BME280;69145;45.544;10.214;2023-05-07T12:09:41;100034.88;;;19.85;75.37
79678;BME280;69145;45.544;10.214;2023-05-07T12:12:07;100039.88;;;19.87;75.04
79678;BME280;69145;45.544;10.214;2023-05-07T12:14:42;100040.44;;;19.89;75.99
79678;BME280;69145;45.544;10.214;2023-05-07T12:17:08;100041.47;;;19.88;75.64
79678;BME280;69145;45.544;10.214;2023-05-07T12:19:35;100030.19;;;19.87;75.13
79678;BME280;69145;45.544;10.214;2023-05-07T12:25:06;100026.66;;;19.82;75.00
79678;BME280;69145;45.544;10.214;2023-05-07T12:27:40;100028.28;;;19.83;75.38
79678;BME280;69145;45.544;10.214;2023-05-07T12:30:06;100028.84;;;19.85;75.59
79678;BME280;69145;45.544;10.214;2023-05-07T12:32:53;100026.28;;;19.90;75.99
79678;BME280;69145;45.544;10.214;2023-05-07T12:35:31;100033.59;;;19.88;75.52
79678;BME280;69145;45.544;10.214;2023-05-07T12:37:59;100014.09;;;19.84;75.12
79678;BME280;69145;45.544;10.214;2023-05-07T12:40:49;100021.50;;;19.87;75.28
79678;BME280;69145;45.544;10.214;2023-05-07T12:43:24;100028.13;;;19.89;76.85
79678;BME280;69145;45.544;10.214;2023-05-07T12:45:50;100024.13;;;19.87;75.80
79678;BME280;69145;45.544;10.214;2023-05-07T12:48:17;100017.28;;;19.86;76.37
79678;BME280;69145;45.544;10.214;2023-05-07T12:50:43;100004.66;;;19.83;74.77
79678;BME280;69145;45.544;10.214;2023-05-07T12:53:10;100005.75;;;19.87;74.74
79678;BME280;69145;45.544;10.214;2023-05-07T12:55:45;100005.22;;;19.85;74.70
79678;BME280;69145;45.544;10.214;2023-05-07T12:58:32;99997.88;;;19.87;74.16
79678;BME280;69145;45.544;10.214;2023-05-07T13:01:00;100006.06;;;19.90;74.57
79678;BME280;69145;45.544;10.214;2023-05-07T13:03:30;100005.28;;;19.90;75.04
79678;BME280;69145;45.544;10.214;2023-05-07T13:06:16;100011.09;;;19.92;75.72
79678;BME280;69145;45.544;10.214;2023-05-07T13:08:42;99992.16;;;19.90;75.10
79678;BME280;69145;45.544;10.214;2023-05-07T13:11:11;99993.72;;;19.91;75.42
79678;BME280;69145;45.544;10.214;2023-05-07T13:13:37;99994.28;;;19.93;76.40
79678;BME280;69145;45.544;10.214;2023-05-07T13:16:04;99996.91;;;19.93;75.28
79678;BME280;69145;45.544;10.214;2023-05-07T13:18:31;99987.47;;;19.92;75.28
79678;BME280;69145;45.544;10.214;2023-05-07T13:20:57;99982.97;;;19.92;74.96
79678;BME280;69145;45.544;10.214;2023-05-07T13:23:23;99985.59;;;19.92;75.32
79678;BME280;69145;45.544;10.214;2023-05-07T13:25:49;99985.59;;;19.92;75.04
79678;BME280;69145;45.544;10.214;2023-05-07T13:28:14;99976.97;;;19.92;75.06
79678;BME280;69145;45.544;10.214;2023-05-07T13:30:40;99979.34;;;19.93;75.37
79678;BME280;69145;45.544;10.214;2023-05-07T13:33:08;99970.66;;;19.93;74.35
79678;BME280;69145;45.544;10.214;2023-05-07T13:45:20;99952.22;;;19.88;74.26